Time;durP1;ratioP1;P1;durP2;ratioP2;P2;SDS_P1;SDS_P2;PMS_P1;PMS_P2;Temp;Humidity;BMP_temperature;BMP_pressure;BME280_temperature;BME280_humidity;BME280_pressure;Samples;Min_cycle;Max_cycle;Signal;HPM_P1;HPM_P2
2022/03/26 00:02:21;;;;;;;;;;;;;;;21.66;38.88;102355.63;4973892;28;4236;-48
2022/03/26 00:04:48;;;;;;;;;;;;;;;21.70;38.95;102361.66;4976828;28;4209;-48
2022/03/26 00:07:14;;;;;;;;;;;;;;;21.69;38.99;102365.94;4975972;28;4193;-49
2022/03/26 00:09:40;;;;;;;;;;;;;;;21.68;38.93;102361.53;4973136;28;4220;-50
2022/03/26 00:12:08;;;;;;;;;;;;;;;21.67;38.93;102365.03;4975409;28;4220;-51
2022/03/26 00:14:34;;;;;;;;;;;;;;;21.64;38.98;102364.16;4973511;28;4298;-48
2022/03/26 00:17:00;;;;;;;;;;;;;;;21.61;38.98;102365.41;4972514;28;4196;-51
2022/03/26 00:19:27;;;;;;;;;;;;;;;21.61;39.10;102364.66;4974099;28;4276;-50
2022/03/26 00:21:53;;;;;;;;;;;;;;;21.59;39.24;102359.50;4974184;28;4219;-49
2022/03/26 00:24:20;;;;;;;;;;;;;;;21.59;39.08;102365.28;4975261;28;4317;-47
2022/03/26 00:26:47;;;;;;;;;;;;;;;21.57;39.00;102365.13;4973575;28;4189;-53
2022/03/26 00:29:13;;;;;;;;;;;;;;;21.57;39.19;102358.63;4974327;28;4226;-48
2022/03/26 00:31:40;;;;;;;;;;;;;;;21.56;39.18;102354.25;4970497;28;4243;-48
2022/03/26 00:34:07;;;;;;;;;;;;;;;21.56;39.08;102357.88;4974104;28;4184;-48
2022/03/26 00:36:33;;;;;;;;;;;;;;;21.54;39.33;102357.75;4975243;28;4143;-47
2022/03/26 00:38:59;;;;;;;;;;;;;;;21.53;39.19;102359.09;4974945;28;4263;-50
2022/03/26 00:41:26;;;;;;;;;;;;;;;21.52;39.17;102355.47;4972769;28;4319;-52
2022/03/26 00:43:52;;;;;;;;;;;;;;;21.52;39.31;102351.84;4974149;28;5471;-49
2022/03/26 00:46:19;;;;;;;;;;;;;;;21.51;39.12;102350.34;4969400;28;4361;-50
2022/03/26 00:48:45;;;;;;;;;;;;;;;21.53;39.00;102348.34;4974488;28;4254;-50
2022/03/26 00:51:15;;;;;;;;;;;;;;;21.54;38.92;102340.44;4979617;28;4180;-50
2022/03/26 00:53:41;;;;;;;;;;;;;;;21.53;38.98;102347.56;4977901;28;4237;-53
2022/03/26 00:56:08;;;;;;;;;;;;;;;21.50;39.18;102343.81;4975220;28;4226;-48
2022/03/26 00:58:34;;;;;;;;;;;;;;;21.49;39.06;102344.44;4975775;28;5286;-49
2022/03/26 01:01:00;;;;;;;;;;;;;;;21.49;39.15;102347.31;4972188;28;4172;-50
2022/03/26 01:03:27;;;;;;;;;;;;;;;21.47;39.11;102344.31;4973585;28;4240;-52
2022/03/26 01:05:53;;;;;;;;;;;;;;;21.47;39.13;102344.31;4975244;28;5468;-50
2022/03/26 01:08:20;;;;;;;;;;;;;;;21.48;39.19;102340.03;4973302;28;4092;-51
2022/03/26 01:10:46;;;;;;;;;;;;;;;21.48;38.97;102325.63;4974988;28;4285;-51
2022/03/26 01:13:13;;;;;;;;;;;;;;;21.51;38.91;102338.81;4974280;28;4373;-47
2022/03/26 01:15:39;;;;;;;;;;;;;;;21.53;39.11;102344.69;4978032;28;4209;-50
2022/03/26 01:18:06;;;;;;;;;;;;;;;21.55;39.04;102339.06;4976208;28;5337;-52
2022/03/26 01:20:32;;;;;;;;;;;;;;;21.56;38.82;102339.84;4973357;28;4234;-51
2022/03/26 01:22:59;;;;;;;;;;;;;;;21.54;38.93;102332.53;4976104;28;5397;-52
2022/03/26 01:25:25;;;;;;;;;;;;;;;21.53;38.92;102325.28;4975280;28;4317;-52
2022/03/26 01:27:52;;;;;;;;;;;;;;;21.56;38.66;102328.31;4979962;28;6598;-50
2022/03/26 01:30:18;;;;;;;;;;;;;;;21.56;38.81;102329.03;4978405;28;4198;-47
2022/03/26 01:32:44;;;;;;;;;;;;;;;21.57;38.63;102324.78;4978994;28;4290;-53
2022/03/26 01:35:11;;;;;;;;;;;;;;;21.57;38.71;102319.00;4974082;28;5300;-53
2022/03/26 01:37:37;;;;;;;;;;;;;;;21.56;38.54;102326.16;4977744;28;4205;-52
2022/03/26 01:40:04;;;;;;;;;;;;;;;21.58;38.71;102322.63;4979289;28;4205;-48
2022/03/26 01:42:30;;;;;;;;;;;;;;;21.58;38.91;102317.66;4976877;28;4207;-49
2022/03/26 01:44:57;;;;;;;;;;;;;;;21.58;38.91;102323.41;4980351;28;4217;-48
2022/03/26 01:47:23;;;;;;;;;;;;;;;21.58;38.83;102319.75;4980892;28;4167;-51
2022/03/26 01:49:51;;;;;;;;;;;;;;;21.59;38.84;102321.28;4976965;28;4209;-56
2022/03/26 01:52:17;;;;;;;;;;;;;;;21.59;38.95;102319.16;4976174;28;4260;-48
2022/03/26 01:54:43;;;;;;;;;;;;;;;21.59;38.92;102319.16;4980527;28;4166;-51
2022/03/26 01:57:10;;;;;;;;;;;;;;;21.59;39.06;102315.50;4976678;28;5239;-48
2022/03/26 01:59:37;;;;;;;;;;;;;;;21.56;39.15;102323.28;4978128;28;4190;-49
2022/03/26 02:02:05;;;;;;;;;;;;;;;21.56;39.13;102314.63;4976114;28;5426;-48
2022/03/26 02:04:34;;;;;;;;;;;;;;;21.56;39.15;102311.75;4980132;28;4310;-50
2022/03/26 02:07:02;;;;;;;;;;;;;;;21.55;39.01;102310.22;4975535;28;4235;-50
2022/03/26 02:09:33;;;;;;;;;;;;;;;21.54;39.16;102308.75;4971270;28;4414;-49
2022/03/26 02:11:59;;;;;;;;;;;;;;;21.54;39.20;102311.63;4977154;28;4141;-50
2022/03/26 02:14:26;;;;;;;;;;;;;;;21.52;38.93;102302.84;4976280;28;4229;-51
2022/03/26 02:16:52;;;;;;;;;;;;;;;21.52;38.99;102302.84;4975651;28;4222;-48
2022/03/26 02:19:20;;;;;;;;;;;;;;;21.52;39.25;102299.94;4976924;28;4346;-47
2022/03/26 02:21:49;;;;;;;;;;;;;;;21.50;39.00;102300.56;4976780;28;4246;-48
2022/03/26 02:24:15;;;;;;;;;;;;;;;21.50;38.99;102302.69;4974515;28;5182;-53
2022/03/26 02:26:41;;;;;;;;;;;;;;;21.49;39.04;102306.97;4976948;28;4158;-50
2022/03/26 02:29:08;;;;;;;;;;;;;;;21.48;39.24;102303.31;4968820;28;4457;-51
2022/03/26 02:31:35;;;;;;;;;;;;;;;21.49;39.02;102306.97;4970209;28;4187;-50
2022/03/26 02:34:01;;;;;;;;;;;;;;;21.47;39.05;102298.94;4976728;28;4239;-49
2022/03/26 02:36:28;;;;;;;;;;;;;;;21.46;39.04;102303.22;4975591;28;4568;-52
2022/03/26 02:38:54;;;;;;;;;;;;;;;21.46;39.03;102305.31;4979257;28;4187;-51
2022/03/26 02:41:20;;;;;;;;;;;;;;;21.46;39.00;102297.44;4975492;28;4250;-49
2022/03/26 02:43:47;;;;;;;;;;;;;;;21.45;39.13;102295.19;4975253;28;4206;-55
2022/03/26 02:46:13;;;;;;;;;;;;;;;21.45;39.15;102289.41;4974412;28;4235;-49
2022/03/26 02:48:41;;;;;;;;;;;;;;;21.43;39.07;102295.78;4976864;28;5251;-49
2022/03/26 02:51:09;;;;;;;;;;;;;;;21.42;39.07;102291.41;4976232;28;4223;-52
2022/03/26 02:53:35;;;;;;;;;;;;;;;21.41;39.01;102289.16;4976069;28;4161;-53
2022/03/26 02:56:01;;;;;;;;;;;;;;;21.40;39.05;102285.50;4975297;28;5269;-48
2022/03/26 02:58:28;;;;;;;;;;;;;;;21.40;39.11;102281.84;4976400;28;4250;-50
2022/03/26 03:00:54;;;;;;;;;;;;;;;21.39;39.28;102286.09;4975798;28;4269;-48
2022/03/26 03:03:20;;;;;;;;;;;;;;;21.38;38.97;102285.34;4976367;28;4248;-50
2022/03/26 03:05:47;;;;;;;;;;;;;;;21.38;39.14;102284.59;4973339;28;4307;-49
2022/03/26 03:08:14;;;;;;;;;;;;;;;21.37;39.19;102283.81;4973815;28;4193;-48
2022/03/26 03:10:44;;;;;;;;;;;;;;;21.34;39.16;102285.84;4977031;28;4229;-49
2022/03/26 03:13:10;;;;;;;;;;;;;;;21.33;39.31;102278.56;4975751;28;4212;-48
2022/03/26 03:15:37;;;;;;;;;;;;;;;21.32;39.24;102285.69;4975670;28;4072;-51
2022/03/26 03:18:03;;;;;;;;;;;;;;;21.28;39.15;102282.56;4974096;28;4181;-48
2022/03/26 03:20:32;;;;;;;;;;;;;;;21.28;39.16;102288.34;4969655;28;4201;-49
2022/03/26 03:22:59;;;;;;;;;;;;;;;21.27;39.18;102281.06;4975032;28;4227;-47
2022/03/26 03:25:29;;;;;;;;;;;;;;;21.28;39.17;102282.56;4973772;28;4266;-52
2022/03/26 03:27:56;;;;;;;;;;;;;;;21.26;39.23;102282.44;4978342;28;4187;-50
2022/03/26 03:30:22;;;;;;;;;;;;;;;21.25;39.33;102283.78;4974581;28;4224;-48
2022/03/26 03:32:49;;;;;;;;;;;;;;;21.24;39.26;102282.31;4973269;28;4207;-49
2022/03/26 03:35:15;;;;;;;;;;;;;;;21.23;39.35;102286.53;4976247;28;4271;-51
2022/03/26 03:37:42;;;;;;;;;;;;;;;21.23;39.16;102280.03;4975945;28;4239;-51
2022/03/26 03:40:09;;;;;;;;;;;;;;;21.22;39.35;102285.03;4975213;28;5270;-49
2022/03/26 03:42:35;;;;;;;;;;;;;;;21.23;39.20;102283.66;4975745;28;4230;-47
2022/03/26 03:45:02;;;;;;;;;;;;;;;21.24;39.20;102276.53;4972902;28;4564;-49
2022/03/26 03:47:28;;;;;;;;;;;;;;;21.26;39.08;102279.56;4975440;28;5397;-50
2022/03/26 03:49:55;;;;;;;;;;;;;;;21.27;39.00;102281.06;4973715;28;5232;-47
2022/03/26 03:52:21;;;;;;;;;;;;;;;21.30;38.95;102279.06;4970878;28;5531;-51
2022/03/26 03:54:47;;;;;;;;;;;;;;;21.29;38.86;102283.31;4974696;28;4194;-49
2022/03/26 03:57:14;;;;;;;;;;;;;;;21.29;38.90;102277.56;4975822;28;5480;-50
2022/03/26 03:59:41;;;;;;;;;;;;;;;21.30;38.83;102287.69;4973627;28;4187;-51
2022/03/26 04:02:09;;;;;;;;;;;;;;;21.31;38.99;102287.09;4973756;28;5616;-52
2022/03/26 04:04:37;;;;;;;;;;;;;;;21.32;38.95;102288.56;4971188;28;4300;-50
2022/03/26 04:07:03;;;;;;;;;;;;;;;21.33;38.88;102278.56;4975027;28;4367;-48
2022/03/26 04:09:30;;;;;;;;;;;;;;;21.34;38.88;102280.06;4972302;28;4238;-48
2022/03/26 04:11:56;;;;;;;;;;;;;;;21.36;39.03;102278.72;4969763;28;4201;-48
2022/03/26 04:14:22;;;;;;;;;;;;;;;21.34;39.05;102280.06;4975184;28;4235;-49
2022/03/26 04:16:49;;;;;;;;;;;;;;;21.34;39.08;102279.31;4972561;28;4204;-48
2022/03/26 04:19:15;;;;;;;;;;;;;;;21.34;39.16;102271.41;4970396;28;4221;-53
2022/03/26 04:21:41;;;;;;;;;;;;;;;21.36;39.09;102275.81;4972231;28;4456;-52
2022/03/26 04:24:08;;;;;;;;;;;;;;;21.36;39.14;102278.72;4971884;28;4176;-49
2022/03/26 04:26:35;;;;;;;;;;;;;;;21.37;39.26;102277.31;4974490;28;4349;-48
2022/03/26 04:29:01;;;;;;;;;;;;;;;21.38;39.10;102275.97;4973254;28;4057;-49
2022/03/26 04:31:27;;;;;;;;;;;;;;;21.39;39.22;102277.44;4973235;28;5378;-50
2022/03/26 04:33:54;;;;;;;;;;;;;;;21.38;39.15;102278.84;4971616;28;4221;-51
2022/03/26 04:36:20;;;;;;;;;;;;;;;21.38;39.41;102273.06;4970172;28;4240;-52
2022/03/26 04:38:47;;;;;;;;;;;;;;;21.38;39.22;102275.97;4971614;28;4209;-50
2022/03/26 04:41:14;;;;;;;;;;;;;;;21.38;39.33;102279.59;4972927;28;4212;-50
2022/03/26 04:43:40;;;;;;;;;;;;;;;21.37;39.26;102277.31;4975725;28;4052;-48
2022/03/26 04:46:06;;;;;;;;;;;;;;;21.38;39.29;102284.59;4974108;28;4289;-48
2022/03/26 04:48:33;;;;;;;;;;;;;;;21.37;39.22;102278.06;4974996;28;4236;-51
2022/03/26 04:50:59;;;;;;;;;;;;;;;21.38;39.23;102288.22;4970570;28;5364;-50
2022/03/26 04:53:25;;;;;;;;;;;;;;;21.37;39.44;102278.06;4972068;28;4176;-53
2022/03/26 04:55:52;;;;;;;;;;;;;;;21.40;39.38;102290.50;4970509;28;4217;-50
2022/03/26 04:58:19;;;;;;;;;;;;;;;21.39;39.20;102280.34;4973442;28;4337;-50
2022/03/26 05:00:45;;;;;;;;;;;;;;;21.39;39.20;102283.22;4971142;28;5359;-51
2022/03/26 05:03:12;;;;;;;;;;;;;;;21.39;39.22;102286.09;4973206;28;5250;-53
2022/03/26 05:05:38;;;;;;;;;;;;;;;21.40;39.28;102293.38;4969942;28;4359;-52
2022/03/26 05:08:05;;;;;;;;;;;;;;;21.39;39.38;102286.09;4970831;28;4247;-51
2022/03/26 05:10:31;;;;;;;;;;;;;;;21.40;39.29;102293.38;4974132;28;4237;-51
2022/03/26 05:12:58;;;;;;;;;;;;;;;21.39;39.30;102297.63;4972561;28;4310;-51
2022/03/26 05:15:26;;;;;;;;;;;;;;;21.39;39.42;102300.50;4972664;28;5262;-51
2022/03/26 05:17:53;;;;;;;;;;;;;;;21.38;39.29;102296.13;4973370;28;4235;-50
2022/03/26 05:20:19;;;;;;;;;;;;;;;21.41;39.36;102294.91;4973178;28;3986;-50
2022/03/26 05:22:46;;;;;;;;;;;;;;;21.40;39.37;102296.28;4976436;28;5301;-47
2022/03/26 05:25:12;;;;;;;;;;;;;;;21.42;39.17;102290.66;4973117;28;4443;-52
2022/03/26 05:27:43;;;;;;;;;;;;;;;21.41;39.27;102287.00;4970426;28;5542;-52
2022/03/26 05:30:09;;;;;;;;;;;;;;;21.42;39.45;102296.44;4972024;28;5109;-49
2022/03/26 05:32:35;;;;;;;;;;;;;;;21.42;39.41;102296.44;4970970;28;4091;-48
2022/03/26 05:35:03;;;;;;;;;;;;;;;21.41;39.46;102301.41;4975727;28;5343;-53
2022/03/26 05:37:29;;;;;;;;;;;;;;;21.42;39.43;102307.97;4977233;28;4382;-51
2022/03/26 05:39:56;;;;;;;;;;;;;;;21.42;39.33;102294.28;4976617;28;4257;-48
2022/03/26 05:42:23;;;;;;;;;;;;;;;21.41;39.40;102298.53;4979368;28;4221;-48
2022/03/26 05:44:49;;;;;;;;;;;;;;;21.41;39.31;102289.88;4976127;28;3967;-50
2022/03/26 05:47:16;;;;;;;;;;;;;;;21.42;39.31;102302.19;4978815;28;4152;-51
2022/03/26 05:49:42;;;;;;;;;;;;;;;21.42;39.36;102294.28;4978230;28;4221;-50
2022/03/26 05:52:12;;;;;;;;;;;;;;;21.44;39.34;102305.19;4969330;28;5312;-48
2022/03/26 05:54:38;;;;;;;;;;;;;;;21.45;39.42;102300.94;4970118;28;4066;-51
2022/03/26 05:57:05;;;;;;;;;;;;;;;21.43;39.34;102303.69;4973940;28;5248;-51
2022/03/26 05:59:31;;;;;;;;;;;;;;;21.44;39.42;102305.19;4970534;28;5426;-53
2022/03/26 06:01:57;;;;;;;;;;;;;;;21.43;39.35;102303.69;4971345;28;4233;-50
2022/03/26 06:04:24;;;;;;;;;;;;;;;21.43;39.37;102306.56;4967021;28;4989;-49
2022/03/26 06:06:50;;;;;;;;;;;;;;;21.44;39.38;102294.44;4975697;28;4219;-51
2022/03/26 06:09:17;;;;;;;;;;;;;;;21.44;39.36;102299.41;4975808;28;4237;-54
2022/03/26 06:11:43;;;;;;;;;;;;;;;21.45;39.49;102300.94;4975091;28;4276;-52
2022/03/26 06:14:10;;;;;;;;;;;;;;;21.45;39.53;102312.47;4972059;28;5521;-49
2022/03/26 06:16:36;;;;;;;;;;;;;;;21.45;39.42;102312.47;4970130;28;4240;-48
2022/03/26 06:19:02;;;;;;;;;;;;;;;21.45;39.55;102318.22;4974700;28;4182;-48
2022/03/26 06:21:29;;;;;;;;;;;;;;;21.44;39.51;102311.72;4969519;28;5317;-50
2022/03/26 06:23:58;;;;;;;;;;;;;;;21.43;39.54;102309.44;4973059;28;5263;-48
2022/03/26 06:26:25;;;;;;;;;;;;;;;21.44;39.45;102310.94;4971206;28;4243;-51
2022/03/26 06:28:51;;;;;;;;;;;;;;;21.43;39.52;102309.44;4974102;28;4444;-51
2022/03/26 06:31:18;;;;;;;;;;;;;;;21.44;39.42;102299.41;4975493;28;4426;-51
2022/03/26 06:33:44;;;;;;;;;;;;;;;21.45;39.57;102307.44;4978357;28;4044;-50
2022/03/26 06:36:10;;;;;;;;;;;;;;;21.45;39.54;102300.94;4976915;28;4302;-50
2022/03/26 06:38:39;;;;;;;;;;;;;;;21.46;39.67;102296.66;4976907;28;4469;-53
2022/03/26 06:41:06;;;;;;;;;;;;;;;21.47;39.68;102304.69;4978279;28;6366;-49
2022/03/26 06:43:32;;;;;;;;;;;;;;;21.47;39.65;102298.19;4974377;28;5347;-48
2022/03/26 06:45:58;;;;;;;;;;;;;;;21.50;39.69;102308.47;4974921;28;4194;-49
2022/03/26 06:48:25;;;;;;;;;;;;;;;21.44;39.72;102300.19;4975761;28;4214;-47
2022/03/26 06:50:51;;;;;;;;;;;;;;;20.93;40.69;102294.69;4975310;28;4307;-48
2022/03/26 06:53:18;;;;;;;;;;;;;;;20.59;40.92;102289.47;4978145;28;4319;-59
2022/03/26 06:55:44;;;;;;;;;;;;;;;20.63;40.44;102290.50;4976772;28;4544;-48
2022/03/26 06:58:10;;;;;;;;;;;;;;;20.43;40.43;102286.97;4974599;28;4183;-51
2022/03/26 07:00:41;;;;;;;;;;;;;;;20.48;40.57;102285.88;4975899;28;4311;-50
2022/03/26 07:03:08;;;;;;;;;;;;;;;20.69;40.28;102287.28;4972270;28;5266;-47
2022/03/26 07:05:34;;;;;;;;;;;;;;;20.99;39.85;102290.72;4971140;28;4249;-48
2022/03/26 07:08:03;;;;;;;;;;;;;;;21.12;39.72;102290.16;4975462;28;4139;-51
2022/03/26 07:10:29;;;;;;;;;;;;;;;21.21;39.78;102289.31;4971829;28;4249;-49
2022/03/26 07:12:55;;;;;;;;;;;;;;;21.27;39.54;102297.59;4969102;28;4108;-51
2022/03/26 07:15:21;;;;;;;;;;;;;;;21.25;39.63;102301.09;4973101;28;5407;-47
2022/03/26 07:17:48;;;;;;;;;;;;;;;21.27;39.63;102295.44;4975645;28;4272;-48
2022/03/26 07:20:14;;;;;;;;;;;;;;;21.31;39.77;102292.84;4977915;28;4119;-48
2022/03/26 07:22:41;;;;;;;;;;;;;;;21.33;40.05;102295.88;4973796;28;4228;-48
2022/03/26 07:25:08;;;;;;;;;;;;;;;21.22;38.57;102304.47;4973340;28;5280;-49
2022/03/26 07:27:34;;;;;;;;;;;;;;;20.77;36.71;102299.34;4973887;28;5307;-53
2022/03/26 07:30:01;;;;;;;;;;;;;;;20.61;36.75;102306.88;4973872;28;6580;-52
2022/03/26 07:32:27;;;;;;;;;;;;;;;20.74;37.04;102305.59;4966079;28;4190;-48
2022/03/26 07:34:53;;;;;;;;;;;;;;;20.84;36.99;102315.66;4964130;28;4418;-58
2022/03/26 07:37:20;;;;;;;;;;;;;;;20.60;36.62;102309.00;4963046;28;4164;-53
2022/03/26 07:39:46;;;;;;;;;;;;;;;20.75;37.05;102313.59;4968797;28;4085;-49
2022/03/26 07:42:13;;;;;;;;;;;;;;;20.97;37.65;102310.75;4964945;28;4354;-51
2022/03/26 07:44:40;;;;;;;;;;;;;;;21.09;37.70;102311.53;4966727;28;4444;-50
2022/03/26 07:47:06;;;;;;;;;;;;;;;21.15;37.61;102314.81;4966743;28;4111;-51
2022/03/26 07:49:32;;;;;;;;;;;;;;;21.19;37.62;102309.34;4964900;28;4235;-51
2022/03/26 07:51:59;;;;;;;;;;;;;;;21.24;37.76;102313.25;4964349;28;4252;-54
2022/03/26 07:54:25;;;;;;;;;;;;;;;21.24;37.82;102311.13;4965846;28;4573;-50
2022/03/26 07:56:51;;;;;;;;;;;;;;;21.26;37.92;102313.38;4965162;28;5272;-50
2022/03/26 07:59:18;;;;;;;;;;;;;;;21.27;38.12;102309.88;4966490;28;4264;-54
2022/03/26 08:01:44;;;;;;;;;;;;;;;21.30;38.19;102299.22;4966290;28;4197;-51
2022/03/26 08:04:11;;;;;;;;;;;;;;;21.29;38.48;102301.34;4964343;28;4232;-51
2022/03/26 08:06:37;;;;;;;;;;;;;;;21.33;38.45;102290.09;4967312;28;5517;-52
2022/03/26 08:09:04;;;;;;;;;;;;;;;21.32;38.77;102296.47;4962401;28;4203;-54
2022/03/26 08:11:30;;;;;;;;;;;;;;;21.33;38.96;102295.88;4962215;28;5406;-49
2022/03/26 08:13:56;;;;;;;;;;;;;;;21.36;38.97;102293.88;4966247;28;5298;-51
2022/03/26 08:16:23;;;;;;;;;;;;;;;21.37;39.18;102294.59;4964101;28;4224;-50
2022/03/26 08:18:49;;;;;;;;;;;;;;;21.37;39.33;102294.59;4964364;28;6408;-53
2022/03/26 08:21:17;;;;;;;;;;;;;;;21.38;39.46;102285.34;4967107;28;4197;-51
2022/03/26 08:23:44;;;;;;;;;;;;;;;21.40;39.64;102296.28;4966285;28;4143;-53
2022/03/26 08:26:23;;;;;;;;;;;;;;;21.42;39.83;102296.44;4964589;28;4195;-56
2022/03/26 08:28:49;;;;;;;;;;;;;;;21.41;39.76;102294.91;4964781;28;4147;-55
2022/03/26 08:31:17;;;;;;;;;;;;;;;21.44;39.77;102288.66;4965069;28;6308;-50
2022/03/26 08:33:44;;;;;;;;;;;;;;;21.45;40.11;102295.19;4959944;28;5467;-50
2022/03/26 08:36:10;;;;;;;;;;;;;;;21.47;40.16;102293.19;4964047;28;4281;-54
2022/03/26 08:38:37;;;;;;;;;;;;;;;21.46;40.38;102296.66;4960319;28;4224;-52
2022/03/26 08:41:03;;;;;;;;;;;;;;;21.49;40.18;102290.44;4957631;28;5580;-55
2022/03/26 08:43:30;;;;;;;;;;;;;;;21.41;40.43;102306.44;4961646;28;4259;-57
2022/03/26 08:45:56;;;;;;;;;;;;;;;21.33;40.13;102295.88;4960986;28;4115;-48
2022/03/26 08:48:22;;;;;;;;;;;;;;;21.26;40.22;102291.09;4962506;28;4275;-51
2022/03/26 08:50:49;;;;;;;;;;;;;;;21.39;40.44;102292.59;4965895;28;4198;-50
2022/03/26 08:53:15;;;;;;;;;;;;;;;21.44;40.29;102287.88;4966373;28;4228;-48
2022/03/26 08:55:41;;;;;;;;;;;;;;;21.49;40.25;102299.06;4967370;28;5281;-50
2022/03/26 08:58:08;;;;;;;;;;;;;;;21.49;40.06;102295.44;4970397;28;4239;-48
2022/03/26 09:00:40;;;;;;;;;;;;;;;21.50;40.23;102296.94;4969621;28;4255;-51
2022/03/26 09:03:06;;;;;;;;;;;;;;;21.52;40.07;102299.94;4968908;28;5120;-48
2022/03/26 09:05:33;;;;;;;;;;;;;;;21.53;40.13;102302.22;4975793;28;4184;-48
2022/03/26 09:07:59;;;;;;;;;;;;;;;21.53;40.07;102301.44;4975559;28;4166;-48
2022/03/26 09:10:26;;;;;;;;;;;;;;;21.53;40.09;102302.22;4980908;28;4302;-47
2022/03/26 09:12:52;;;;;;;;;;;;;;;21.55;40.24;102304.47;4975719;28;4244;-48
2022/03/26 09:15:18;;;;;;;;;;;;;;;21.56;40.18;102306.00;4976430;28;5400;-47
2022/03/26 09:17:45;;;;;;;;;;;;;;;21.55;40.19;102304.47;4974315;28;4209;-47
2022/03/26 09:20:11;;;;;;;;;;;;;;;21.53;40.33;102295.69;4976112;28;4020;-49
2022/03/26 09:22:37;;;;;;;;;;;;;;;21.54;40.19;102297.22;4979616;28;4237;-49
2022/03/26 09:25:04;;;;;;;;;;;;;;;21.52;40.41;102300.69;4978993;28;5384;-48
2022/03/26 09:27:30;;;;;;;;;;;;;;;21.52;40.49;102294.19;4973586;28;4161;-49
2022/03/26 09:29:57;;;;;;;;;;;;;;;21.54;40.23;102289.31;4980113;28;4220;-48
2022/03/26 09:32:23;;;;;;;;;;;;;;;21.57;40.47;102295.19;4976874;28;4335;-49
2022/03/26 09:34:50;;;;;;;;;;;;;;;21.57;40.40;102301.72;4974412;28;4193;-49
2022/03/26 09:37:16;;;;;;;;;;;;;;;21.59;40.21;102298.22;4978055;28;4223;-48
2022/03/26 09:39:42;;;;;;;;;;;;;;;21.61;40.19;102301.97;4973579;28;4105;-49
2022/03/26 09:42:09;;;;;;;;;;;;;;;21.62;40.29;102296.97;4977194;28;4157;-50
2022/03/26 09:44:35;;;;;;;;;;;;;;;21.60;40.39;102297.59;4979564;28;4170;-49
2022/03/26 09:47:05;;;;;;;;;;;;;;;21.59;40.25;102298.97;4978482;28;5274;-50
2022/03/26 09:49:31;;;;;;;;;;;;;;;21.61;40.48;102299.09;4976913;28;4138;-49
2022/03/26 09:51:59;;;;;;;;;;;;;;;21.60;40.37;102303.38;4978691;28;4228;-51
2022/03/26 09:54:25;;;;;;;;;;;;;;;21.61;40.25;102292.59;4978771;28;5235;-48
2022/03/26 09:56:51;;;;;;;;;;;;;;;21.62;40.46;102302.72;4977961;28;4137;-48
2022/03/26 09:59:19;;;;;;;;;;;;;;;21.63;40.25;102304.25;4962818;28;4261;-59
2022/03/26 10:01:45;;;;;;;;;;;;;;;21.46;39.60;102305.31;4965372;28;4264;-59
2022/03/26 10:04:15;;;;;;;;;;;;;;;21.19;39.36;102314.31;4968037;28;5346;-53
2022/03/26 10:06:46;;;;;;;;;;;;;;;21.31;39.53;102298.59;4975534;28;4286;-51
2022/03/26 10:09:12;;;;;;;;;;;;;;;21.41;39.60;102303.56;4973090;28;5117;-51
2022/03/26 10:11:41;;;;;;;;;;;;;;;21.46;39.71;102297.44;4976731;28;4344;-48
2022/03/26 10:14:08;;;;;;;;;;;;;;;21.53;39.91;102304.34;4970457;28;4256;-53
2022/03/26 10:16:34;;;;;;;;;;;;;;;21.52;40.22;102306.47;4969075;28;5374;-57
2022/03/26 10:19:03;;;;;;;;;;;;;;;21.52;40.52;102305.72;4964536;28;5492;-53
2022/03/26 10:21:29;;;;;;;;;;;;;;;21.53;40.41;102295.69;4964361;28;4156;-50
2022/03/26 10:23:56;;;;;;;;;;;;;;;21.60;40.55;102293.94;4966822;28;5230;-51
2022/03/26 10:26:23;;;;;;;;;;;;;;;21.54;40.83;102291.44;4967324;28;4191;-54
2022/03/26 10:28:50;;;;;;;;;;;;;;;21.57;40.84;102298.84;4967953;28;5424;-53
2022/03/26 10:34:03;;;;;;;;;;;;;;;21.58;40.30;102297.47;4966959;28;4179;-60
2022/03/26 10:36:29;;;;;;;;;;;;;;;21.12;39.65;102305.31;4970550;28;4350;-55
2022/03/26 10:38:55;;;;;;;;;;;;;;;21.12;39.46;102296.66;4959357;28;4299;-51
2022/03/26 10:41:22;;;;;;;;;;;;;;;21.20;39.57;102298.56;4967514;28;4234;-52
2022/03/26 10:43:48;;;;;;;;;;;;;;;21.25;39.50;102295.31;4963804;28;4247;-59
2022/03/26 10:46:21;;;;;;;;;;;;;;;21.31;39.47;102310.13;4962990;28;4343;-54
2022/03/26 10:48:48;;;;;;;;;;;;;;;21.36;39.50;102304.63;4969766;28;4215;-54
2022/03/26 10:51:15;;;;;;;;;;;;;;;21.36;39.79;102305.38;4956525;28;4964;-53
2022/03/26 10:53:42;;;;;;;;;;;;;;;21.40;39.39;102294.16;4974418;28;5335;-53
2022/03/26 10:56:10;;;;;;;;;;;;;;;21.42;39.92;102308.72;4974942;28;4165;-49
2022/03/26 10:58:36;;;;;;;;;;;;;;;21.44;40.35;102302.31;4976533;28;4188;-52
2022/03/26 11:01:02;;;;;;;;;;;;;;;21.42;40.32;102302.19;4972481;28;4179;-50
2022/03/26 11:03:29;;;;;;;;;;;;;;;21.46;39.87;102302.44;4971047;28;4305;-51
2022/03/26 11:05:56;;;;;;;;;;;;;;;21.50;39.95;102296.94;4978275;28;4271;-51
2022/03/26 11:08:23;;;;;;;;;;;;;;;21.46;40.18;102296.66;4972377;28;4172;-52
2022/03/26 11:10:55;;;;;;;;;;;;;;;21.46;40.02;102294.56;4976744;28;4267;-53
2022/03/26 11:13:21;;;;;;;;;;;;;;;21.51;39.90;102289.81;4973993;28;4196;-53
2022/03/26 11:15:52;;;;;;;;;;;;;;;21.49;40.11;102295.44;4973402;28;4128;-51
2022/03/26 11:18:27;;;;;;;;;;;;;;;21.50;40.14;102297.69;4972981;28;5420;-51
2022/03/26 11:21:12;;;;;;;;;;;;;;;21.49;40.70;102295.44;4974436;28;4920;-55
2022/03/26 11:23:57;;;;;;;;;;;;;;;21.43;41.17;102292.16;4972683;28;3953;-54
2022/03/26 11:27:03;;;;;;;;;;;;;;;21.41;40.76;102294.91;4974404;28;4252;-53
2022/03/26 11:29:32;;;;;;;;;;;;;;;21.45;40.68;102292.28;4901357;29;4194;-51
2022/03/26 11:32:18;;;;;;;;;;;;;;;21.50;40.77;102294.06;4893279;29;4502;-51
2022/03/26 11:34:46;;;;;;;;;;;;;;;21.51;40.58;102293.44;4943956;28;4006;-54
2022/03/26 11:37:21;;;;;;;;;;;;;;;21.47;41.17;102286.66;4971544;28;4327;-52
2022/03/26 11:39:48;;;;;;;;;;;;;;;21.45;41.10;102290.16;4977421;28;4529;-51
2022/03/26 11:42:15;;;;;;;;;;;;;;;21.49;40.70;102289.69;4979718;28;4055;-51
2022/03/26 11:44:45;;;;;;;;;;;;;;;21.51;40.58;102286.94;4974926;28;5394;-52
2022/03/26 11:53:07;;;;;;;;;;;;;;;21.49;40.99;102275.28;4976753;28;5147;-52
2022/03/26 11:55:40;;;;;;;;;;;;;;;21.47;40.95;102257.84;4970554;28;4059;-52
2022/03/26 11:58:13;;;;;;;;;;;;;;;21.47;40.64;102267.22;4974554;28;4352;-54
2022/03/26 12:00:59;;;;;;;;;;;;;;;21.53;40.58;102266.84;4972604;28;4323;-53
2022/03/26 12:03:26;;;;;;;;;;;;;;;21.53;40.70;102267.63;4974668;28;4515;-52
2022/03/26 12:08:42;;;;;;;;;;;;;;;21.56;40.91;102270.66;4968861;28;4117;-55
2022/03/26 12:11:11;;;;;;;;;;;;;;;21.55;40.75;102267.00;4969797;28;4985;-51
2022/03/26 12:13:37;;;;;;;;;;;;;;;21.57;40.75;102269.25;4974516;28;4250;-54
2022/03/26 12:16:04;;;;;;;;;;;;;;;21.54;40.79;102266.25;4968708;28;4185;-50
2022/03/26 12:18:35;;;;;;;;;;;;;;;21.56;40.86;102262.75;4968766;28;4065;-52
2022/03/26 12:21:07;;;;;;;;;;;;;;;19.92;42.92;102276.94;4961824;28;5334;-51
2022/03/26 12:23:34;;;;;;;;;;;;;;;19.12;44.47;102265.44;4966890;28;4255;-52
2022/03/26 12:26:05;;;;;;;;;;;;;;;19.34;44.05;102272.81;4967364;28;5651;-50
2022/03/26 12:28:32;;;;;;;;;;;;;;;19.90;43.38;102263.16;4970138;28;4079;-54
2022/03/26 12:30:59;;;;;;;;;;;;;;;20.40;42.65;102268.06;4965548;28;4226;-54
2022/03/26 12:33:26;;;;;;;;;;;;;;;20.75;43.24;102269.66;4967212;28;4217;-53
2022/03/26 12:35:53;;;;;;;;;;;;;;;20.96;42.82;102274.66;4968769;28;4246;-55
2022/03/26 12:38:20;;;;;;;;;;;;;;;21.00;41.95;102275.69;4965008;28;4187;-53
2022/03/26 12:40:53;;;;;;;;;;;;;;;20.99;41.86;102267.69;4975797;28;4260;-51
2022/03/26 12:43:20;;;;;;;;;;;;;;;21.06;41.82;102260.94;4971964;28;5156;-50
2022/03/26 12:45:47;;;;;;;;;;;;;;;21.11;41.87;102265.59;4976744;28;4321;-50
2022/03/26 12:48:13;;;;;;;;;;;;;;;21.14;41.72;102267.22;4973655;28;5381;-52
2022/03/26 12:50:40;;;;;;;;;;;;;;;21.19;41.78;102268.22;4975334;28;4227;-53
2022/03/26 12:53:13;;;;;;;;;;;;;;;21.23;41.80;102268.50;4975401;28;4227;-55
2022/03/26 12:55:39;;;;;;;;;;;;;;;21.26;42.09;102267.28;4967897;28;4229;-50
2022/03/26 13:01:07;;;;;;;;;;;;;;;21.26;42.25;102278.81;4969405;28;5338;-54
2022/03/26 13:03:34;;;;;;;;;;;;;;;21.28;42.73;102276.81;4972831;28;4239;-59